Time;durP1;ratioP1;P1;durP2;ratioP2;P2;SDS_P1;SDS_P2;PMS_P1;PMS_P2;Temp;Humidity;BMP_temperature;BMP_pressure;BME280_temperature;BME280_humidity;BME280_pressure;Samples;Min_cycle;Max_cycle;Signal;HPM_P1;HPM_P2
2022/09/09 00:00:44;;;;;;;16.05;10.98;;;14.40;99.90;;;;;;5089077;28;20040;-88
2022/09/09 00:03:25;;;;;;;16.33;10.75;;;14.40;99.90;;;;;;5088139;28;20059;-88
2022/09/09 00:06:09;;;;;;;;;;;14.40;99.90;;;;;;5086989;28;20039;-88
2022/09/09 00:09:01;;;;;;;14.63;9.68;;;14.20;99.90;;;;;;5071804;28;19924;-88
2022/09/09 00:11:31;;;;;;;;;;;14.20;99.90;;;;;;5088988;28;20051;-88
2022/09/09 00:14:00;;;;;;;14.75;10.48;;;14.10;99.90;;;;;;5071291;28;20394;-88
2022/09/09 00:16:32;;;;;;;13.98;10.45;;;14.20;99.90;;;;;;5072762;28;20070;-88
2022/09/09 00:19:06;;;;;;;13.50;10.23;;;14.20;99.90;;;;;;5094293;28;20114;-88
2022/09/09 00:21:47;;;;;;;13.57;10.38;;;14.20;99.90;;;;;;5102167;28;20074;-88
2022/09/09 00:24:15;;;;;;;;;;;14.20;99.90;;;;;;5102978;28;20036;-87
2022/09/09 00:26:53;;;;;;;14.25;10.02;;;14.00;99.90;;;;;;5093833;28;20359;-88
2022/09/09 00:29:29;;;;;;;15.00;11.27;;;14.00;99.90;;;;;;5082304;28;20119;-88
2022/09/09 00:31:59;;;;;;;17.65;11.02;;;14.00;99.90;;;;;;5092945;28;20032;-88
2022/09/09 00:34:27;;;;;;;14.07;10.63;;;14.10;99.90;;;;;;5097005;28;20044;-88
2022/09/09 00:36:54;;;;;;;18.50;11.82;;;14.10;99.90;;;;;;5098751;28;20083;-88
2022/09/09 00:39:42;;;;;;;14.35;10.55;;;14.00;99.90;;;;;;5100669;28;20489;-88
2022/09/09 00:42:17;;;;;;;15.35;11.75;;;14.10;99.90;;;;;;5094789;28;20446;-88
2022/09/09 00:45:11;;;;;;;13.55;11.30;;;14.00;99.90;;;;;;5092803;28;20043;-88
2022/09/09 00:47:49;;;;;;;17.20;11.50;;;14.00;99.90;;;;;;5092696;28;20060;-88
2022/09/09 00:50:40;;;;;;;15.52;11.48;;;14.00;99.90;;;;;;5092128;28;20592;-88
2022/09/09 00:53:37;;;;;;;12.48;10.32;;;14.00;99.90;;;;;;5054368;28;20040;-88
2022/09/09 00:56:13;;;;;;;14.45;10.55;;;14.00;99.90;;;;;;5053452;28;20091;-88
2022/09/09 00:58:41;;;;;;;16.73;11.18;;;14.00;99.90;;;;;;5082511;28;20040;-88
2022/09/09 01:01:12;;;;;;;14.63;11.25;;;14.00;99.90;;;;;;5089834;28;20040;-88
2022/09/09 01:03:53;;;;;;;13.95;11.43;;;14.00;99.90;;;;;;5091315;28;20036;-88
2022/09/09 01:06:36;;;;;;;15.38;11.43;;;13.90;99.90;;;;;;5071304;28;20041;-87
2022/09/09 01:09:36;;;;;;;14.40;11.20;;;14.00;99.90;;;;;;5079897;28;20048;-88
2022/09/09 01:12:16;;;;;;;15.15;11.90;;;14.00;99.90;;;;;;5073884;28;20079;-87
2022/09/09 01:14:44;;;;;;;17.27;11.82;;;14.10;99.90;;;;;;5074551;28;20075;-88
2022/09/09 01:17:25;;;;;;;16.33;11.65;;;14.10;99.90;;;;;;5094688;28;20047;-88
2022/09/09 01:20:00;;;;;;;15.95;11.45;;;14.20;99.90;;;;;;5082898;28;20044;-88
2022/09/09 01:22:40;;;;;;;14.95;11.63;;;14.20;99.90;;;;;;5086344;28;20067;-88
2022/09/09 01:25:21;;;;;;;18.75;11.88;;;14.30;99.90;;;;;;5105173;28;20096;-87
2022/09/09 01:27:51;;;;;;;14.75;11.18;;;14.30;99.90;;;;;;5092316;28;20044;-88
2022/09/09 01:30:18;;;;;;;15.23;11.15;;;14.40;99.90;;;;;;5088176;28;20036;-87
2022/09/09 01:32:46;;;;;;;15.48;11.50;;;14.40;99.90;;;;;;5090410;28;20055;-88
2022/09/09 01:35:31;;;;;;;13.93;10.50;;;14.50;99.90;;;;;;5079642;28;20040;-89
2022/09/09 01:37:57;;;;;;;14.65;10.63;;;14.50;99.90;;;;;;5096379;28;20067;-88
2022/09/09 01:40:24;;;;;;;14.02;10.55;;;14.50;99.90;;;;;;5085803;28;20137;-88
2022/09/09 01:42:50;;;;;;;15.73;10.80;;;14.60;99.90;;;;;;5090569;28;20177;-87
2022/09/09 01:45:16;;;;;;;15.18;11.35;;;14.60;99.90;;;;;;5100276;28;20169;-87
2022/09/09 01:47:42;;;;;;;16.27;11.27;;;14.70;99.90;;;;;;5089777;28;20131;-85
2022/09/09 01:50:12;;;;;;;15.63;11.60;;;14.70;99.90;;;;;;5090428;28;20059;-86
2022/09/09 01:52:38;;;;;;;16.40;11.07;;;14.70;99.90;;;;;;5090706;28;20044;-88
2022/09/09 01:55:05;;;;;;;16.58;10.93;;;14.70;99.90;;;;;;5106912;28;20403;-88
2022/09/09 01:57:45;;;;;;;15.43;10.63;;;14.70;99.90;;;;;;5093773;28;20044;-88
2022/09/09 02:00:12;;;;;;;21.20;10.98;;;14.80;99.90;;;;;;5090449;28;20362;-88
2022/09/09 02:03:05;;;;;;;17.50;10.73;;;14.80;99.90;;;;;;5078695;28;20384;-91
2022/09/09 02:05:36;;;;;;;14.98;10.73;;;14.80;99.90;;;;;;5087950;28;20051;-91
2022/09/09 02:08:10;;;;;;;16.02;10.07;;;14.80;99.90;;;;;;5108671;28;20057;-90
2022/09/09 02:11:00;;;;;;;14.23;10.07;;;14.90;99.90;;;;;;5092658;28;20044;-90
2022/09/09 02:13:26;;;;;;;15.05;10.35;;;14.90;99.90;;;;;;5111355;28;20044;-89
2022/09/09 02:16:02;;;;;;;16.40;10.52;;;14.90;99.90;;;;;;5090548;28;20407;-88
2022/09/09 02:18:39;;;;;;;15.95;10.02;;;14.90;99.90;;;;;;5094481;28;20494;-88
2022/09/09 02:21:06;;;;;;;13.73;9.65;;;14.90;99.90;;;;;;5089464;28;20070;-89
2022/09/09 02:23:33;;;;;;;14.50;9.80;;;14.90;99.90;;;;;;5095689;28;20036;-89
2022/09/09 02:26:01;;;;;;;15.63;9.65;;;14.90;99.90;;;;;;5092853;28;20044;-89
2022/09/09 02:28:30;;;;;;;15.48;8.70;;;15.00;99.90;;;;;;5104921;28;20035;-89
2022/09/09 02:30:58;;;;;;;14.15;8.95;;;15.00;99.90;;;;;;5100773;28;20097;-89
2022/09/09 02:33:26;;;;;;;14.55;9.40;;;15.00;99.90;;;;;;5086012;28;20039;-89
2022/09/09 02:35:53;;;;;;;17.00;8.60;;;15.00;99.90;;;;;;5083125;28;20417;-89
2022/09/09 02:38:24;;;;;;;15.00;8.88;;;15.00;99.90;;;;;;5075979;28;20050;-89
2022/09/09 02:40:50;;;;;;;14.15;9.00;;;14.90;99.90;;;;;;5093205;28;20031;-90
2022/09/09 02:43:18;;;;;;;13.02;8.30;;;15.00;99.90;;;;;;5093987;28;20632;-89
2022/09/09 02:46:23;;;;;;;15.30;8.98;;;15.00;99.90;;;;;;5098555;28;20050;-89
2022/09/09 02:49:03;;;;;;;14.27;8.35;;;15.10;99.90;;;;;;5036577;28;20513;-90
2022/09/09 02:51:47;;;;;;;13.50;8.83;;;15.00;99.90;;;;;;5008613;28;20096;-89
2022/09/09 02:54:31;;;;;;;15.27;9.63;;;15.00;99.90;;;;;;5043407;28;20053;-89
2022/09/09 02:57:11;;;;;;;14.73;10.98;;;15.00;99.90;;;;;;5027593;28;20177;-89
2022/09/09 02:59:38;;;;;;;18.30;11.65;;;15.00;99.90;;;;;;5012155;28;20099;-88
2022/09/09 03:02:04;;;;;;;15.48;11.18;;;15.00;99.90;;;;;;5011230;28;20120;-89
2022/09/09 03:04:30;;;;;;;16.77;11.23;;;15.00;99.90;;;;;;5011357;28;20159;-88
2022/09/09 03:06:58;;;;;;;15.27;10.55;;;15.00;99.90;;;;;;5027012;28;20124;-88
2022/09/09 03:09:23;;;;;;;16.13;10.70;;;15.00;99.90;;;;;;5027844;28;20046;-88
2022/09/09 03:11:49;;;;;;;14.73;10.85;;;15.00;99.90;;;;;;5011123;28;20422;-88
2022/09/09 03:14:16;;;;;;;14.48;10.50;;;15.00;99.90;;;;;;5011592;28;20086;-88
2022/09/09 03:16:42;;;;;;;14.75;9.27;;;15.00;99.90;;;;;;5027966;28;20089;-88
2022/09/09 03:19:09;;;;;;;13.32;9.50;;;15.00;99.90;;;;;;5026520;28;20102;-88
2022/09/09 03:21:35;;;;;;;12.80;9.05;;;15.10;99.90;;;;;;5027490;28;20042;-89
2022/09/09 03:24:03;;;;;;;12.73;9.40;;;15.00;99.90;;;;;;5011071;28;20061;-88
2022/09/09 03:26:30;;;;;;;14.80;9.75;;;15.00;99.90;;;;;;5083581;28;20120;-88
2022/09/09 03:28:55;;;;;;;13.43;9.25;;;15.00;99.90;;;;;;5079632;28;20047;-89
2022/09/09 03:31:21;;;;;;;14.02;9.90;;;15.00;99.90;;;;;;5109604;28;20039;-88
2022/09/09 03:33:47;;;;;;;14.20;9.45;;;15.00;99.90;;;;;;5078692;28;20040;-89
2022/09/09 03:36:14;;;;;;;14.52;9.63;;;15.00;99.90;;;;;;5091859;28;20048;-89
2022/09/09 03:38:40;;;;;;;13.32;9.45;;;15.00;99.90;;;;;;5098172;28;20078;-89
2022/09/09 03:41:07;;;;;;;14.07;9.55;;;15.00;99.90;;;;;;5079526;28;20102;-88
2022/09/09 03:43:34;;;;;;;16.52;10.55;;;15.00;99.90;;;;;;5094364;28;20046;-89
2022/09/09 03:45:59;;;;;;;14.88;11.20;;;14.90;99.90;;;;;;5071391;28;20047;-88
2022/09/09 03:48:27;;;;;;;14.38;11.07;;;14.90;99.90;;;;;;5089919;28;20040;-88
2022/09/09 03:50:55;;;;;;;15.65;11.40;;;14.90;99.90;;;;;;5083034;28;20040;-88
2022/09/09 03:53:24;;;;;;;14.02;10.93;;;14.90;99.90;;;;;;5072369;28;20050;-89
2022/09/09 03:55:54;;;;;;;15.07;11.23;;;14.90;99.90;;;;;;5088193;28;20036;-88
2022/09/09 03:58:21;;;;;;;15.43;10.98;;;14.90;99.90;;;;;;5089115;28;20055;-88
2022/09/09 04:00:55;;;;;;;13.50;10.68;;;14.90;99.90;;;;;;5088274;28;20040;-88
2022/09/09 04:03:22;;;;;;;15.40;10.73;;;14.90;99.90;;;;;;5087002;28;20040;-89
2022/09/09 04:05:49;;;;;;;15.00;10.85;;;14.90;99.90;;;;;;5088293;28;20040;-88
2022/09/09 04:08:15;;;;;;;15.52;11.07;;;14.90;99.90;;;;;;5088991;28;20097;-88
2022/09/09 04:10:41;;;;;;;16.25;11.40;;;14.90;99.90;;;;;;5088764;28;20404;-88
2022/09/09 04:13:07;;;;;;;15.70;10.73;;;14.90;99.90;;;;;;5087662;28;20182;-88
2022/09/09 04:15:35;;;;;;;16.33;11.40;;;14.90;99.90;;;;;;5088790;28;20047;-88
2022/09/09 04:18:01;;;;;;;17.20;11.30;;;14.90;99.90;;;;;;5087019;28;20052;-89
2022/09/09 04:20:26;;;;;;;17.67;11.80;;;15.00;99.90;;;;;;5088232;28;20106;-88
2022/09/09 04:22:52;;;;;;;16.58;11.50;;;14.90;99.90;;;;;;5089718;28;20469;-88
2022/09/09 04:25:17;;;;;;;16.27;11.68;;;14.90;99.90;;;;;;5071857;28;20047;-88
2022/09/09 04:27:44;;;;;;;17.30;12.32;;;14.90;99.90;;;;;;5088570;28;20553;-88
2022/09/09 04:30:10;;;;;;;19.45;13.15;;;14.90;99.90;;;;;;5071978;28;20491;-88
2022/09/09 04:32:36;;;;;;;16.75;12.88;;;14.90;99.90;;;;;;5091176;28;20397;-88
2022/09/09 04:35:03;;;;;;;18.67;13.52;;;14.90;99.90;;;;;;5087749;28;20400;-88
2022/09/09 04:37:28;;;;;;;19.13;14.13;;;14.90;99.90;;;;;;5071693;28;20058;-89
2022/09/09 04:39:54;;;;;;;19.15;14.05;;;14.90;99.90;;;;;;5087553;28;20036;-88
2022/09/09 04:42:19;;;;;;;18.17;13.93;;;14.90;99.90;;;;;;5090161;28;20044;-88
2022/09/09 04:44:45;;;;;;;17.13;13.38;;;14.80;99.90;;;;;;5102969;28;20043;-87
2022/09/09 04:47:11;;;;;;;16.92;13.27;;;14.80;99.90;;;;;;5085704;28;20046;-87
2022/09/09 04:49:38;;;;;;;17.83;13.20;;;14.80;99.90;;;;;;5099804;28;20043;-87
2022/09/09 04:52:03;;;;;;;18.42;13.02;;;14.80;99.90;;;;;;5091655;28;20039;-89
2022/09/09 04:54:29;;;;;;;15.73;12.52;;;14.80;99.90;;;;;;5091083;28;20086;-88
2022/09/09 04:56:55;;;;;;;15.88;12.15;;;14.70;99.90;;;;;;5097723;28;20093;-88
2022/09/09 04:59:22;;;;;;;18.20;13.90;;;14.70;99.90;;;;;;5098970;28;20036;-87
2022/09/09 05:01:48;;;;;;;17.70;12.80;;;14.70;99.90;;;;;;5101348;28;20042;-87
2022/09/09 05:04:18;;;;;;;17.98;13.77;;;14.70;99.90;;;;;;5104996;28;20043;-88
2022/09/09 05:06:44;;;;;;;19.00;13.60;;;14.70;99.90;;;;;;5095385;28;20059;-86
2022/09/09 05:09:09;;;;;;;18.08;13.40;;;14.70;99.90;;;;;;5098078;28;20036;-88
2022/09/09 05:11:36;;;;;;;19.02;13.73;;;14.70;99.90;;;;;;5073603;28;20130;-88
2022/09/09 05:14:02;;;;;;;16.35;13.35;;;14.70;99.90;;;;;;5109217;28;20051;-88
2022/09/09 05:16:28;;;;;;;16.35;13.02;;;14.70;99.90;;;;;;5107201;28;20055;-88
2022/09/09 05:18:54;;;;;;;20.10;13.80;;;14.60;99.90;;;;;;5091177;28;20036;-87
2022/09/09 05:21:22;;;;;;;16.13;12.20;;;14.60;99.90;;;;;;5092406;28;20075;-87
2022/09/09 05:23:48;;;;;;;16.02;12.80;;;14.50;99.90;;;;;;5092567;28;20166;-87
2022/09/09 05:26:20;;;;;;;16.98;12.75;;;14.60;99.90;;;;;;5074867;28;20102;-88
2022/09/09 05:28:46;;;;;;;17.27;12.80;;;14.60;99.90;;;;;;5090988;28;20036;-87
2022/09/09 05:31:13;;;;;;;16.67;12.32;;;14.60;99.90;;;;;;5074660;28;20049;-90
2022/09/09 05:33:45;;;;;;;19.10;13.13;;;14.60;99.90;;;;;;5092662;28;20119;-87
2022/09/09 05:36:13;;;;;;;19.20;13.50;;;14.60;99.90;;;;;;5088384;28;20044;-86
2022/09/09 05:38:40;;;;;;;16.60;12.85;;;14.60;99.90;;;;;;5090783;28;20065;-87
2022/09/09 05:41:06;;;;;;;17.48;12.68;;;14.60;99.90;;;;;;5110583;28;20058;-86
2022/09/09 05:43:34;;;;;;;18.15;13.02;;;14.60;99.90;;;;;;5094698;28;20089;-87
2022/09/09 05:46:05;;;;;;;17.40;13.00;;;14.60;99.90;;;;;;5111216;28;20065;-86
2022/09/09 05:48:32;;;;;;;17.05;12.30;;;14.60;99.90;;;;;;5091353;28;20508;-86
2022/09/09 05:50:59;;;;;;;16.50;12.95;;;14.60;99.90;;;;;;5089729;28;20040;-87
2022/09/09 05:53:32;;;;;;;17.92;13.15;;;14.60;99.90;;;;;;5095264;28;20040;-86
2022/09/09 05:56:03;;;;;;;16.75;13.10;;;14.70;99.90;;;;;;5090299;28;20097;-87
2022/09/09 05:58:29;;;;;;;16.30;13.05;;;14.70;99.90;;;;;;5095563;28;20122;-86
2022/09/09 06:01:17;;;;;;;16.88;12.40;;;14.80;99.90;;;;;;5100148;28;20047;-86
2022/09/09 06:03:44;;;;;;;18.65;12.98;;;14.80;99.90;;;;;;5073345;28;20055;-87
2022/09/09 06:06:12;;;;;;;16.52;12.93;;;14.90;99.90;;;;;;5092944;28;21004;-88
2022/09/09 06:08:39;;;;;;;15.98;12.48;;;14.90;99.90;;;;;;5096228;28;20039;-90
2022/09/09 06:11:14;;;;;;;17.23;12.38;;;14.90;99.90;;;;;;5091783;28;20048;-88
2022/09/09 06:13:41;;;;;;;15.40;11.77;;;15.00;99.90;;;;;;5073644;28;20052;-90
2022/09/09 06:16:14;;;;;;;15.43;12.20;;;15.00;99.90;;;;;;5089444;28;20044;-88
2022/09/09 06:18:41;;;;;;;15.32;12.80;;;15.00;99.90;;;;;;5079569;28;20044;-89
2022/09/09 06:21:15;;;;;;;14.98;11.45;;;15.00;99.90;;;;;;5091136;28;20036;-90
2022/09/09 06:23:40;;;;;;;14.80;11.02;;;15.00;99.90;;;;;;5107491;28;20431;-89
2022/09/09 06:26:10;;;;;;;15.45;11.60;;;15.00;99.90;;;;;;5093920;28;20031;-90
2022/09/09 06:28:36;;;;;;;15.82;11.40;;;15.10;99.90;;;;;;5110894;28;20054;-90
2022/09/09 06:31:04;;;;;;;13.80;10.95;;;15.10;99.90;;;;;;5078401;28;20467;-89
2022/09/09 06:33:35;;;;;;;13.95;11.00;;;15.10;99.90;;;;;;5086412;28;20036;-91
2022/09/09 06:36:03;;;;;;;16.17;10.88;;;15.10;99.90;;;;;;5088969;28;20169;-90
2022/09/09 06:38:29;;;;;;;15.55;10.55;;;15.20;99.90;;;;;;5095537;28;20039;-90
2022/09/09 06:40:56;;;;;;;14.80;11.30;;;15.20;99.90;;;;;;5090566;28;20047;-90
2022/09/09 06:43:30;;;;;;;15.63;10.73;;;15.20;99.90;;;;;;5090267;28;20051;-90
2022/09/09 06:46:02;;;;;;;12.48;9.98;;;15.20;99.90;;;;;;5089914;28;20044;-89
2022/09/09 06:48:28;;;;;;;14.30;10.60;;;15.20;99.90;;;;;;5091547;28;20048;-90
2022/09/09 06:51:06;;;;;;;13.77;10.32;;;15.20;99.90;;;;;;5090739;28;20101;-90
2022/09/09 06:53:34;;;;;;;12.95;10.18;;;15.30;99.90;;;;;;5091276;28;20036;-91
2022/09/09 06:56:16;;;;;;;14.50;9.98;;;15.30;99.90;;;;;;5075196;28;20522;-89
2022/09/09 06:58:43;;;;;;;13.93;9.68;;;15.30;99.90;;;;;;5076567;28;20422;-88
2022/09/09 07:01:12;;;;;;;12.55;9.23;;;15.30;99.90;;;;;;5092368;28;20131;-88
2022/09/09 07:03:39;;;;;;;13.20;9.50;;;15.40;99.90;;;;;;5062868;28;20039;-90
2022/09/09 07:06:07;;;;;;;12.25;8.70;;;15.40;99.90;;;;;;5085871;28;20063;-89
2022/09/09 07:08:33;;;;;;;13.13;9.70;;;15.50;99.90;;;;;;5082966;28;20032;-90
2022/09/09 07:11:07;;;;;;;15.77;8.75;;;15.60;99.90;;;;;;5093810;28;20118;-90
2022/09/09 07:13:34;;;;;;;12.40;8.80;;;15.60;99.90;;;;;;5089365;28;20123;-91
2022/09/09 07:16:11;;;;;;;13.10;8.35;;;15.70;99.90;;;;;;5074507;28;20187;-90
2022/09/09 07:18:37;;;;;;;12.20;8.82;;;15.80;99.90;;;;;;5055781;28;20098;-91
2022/09/09 07:21:03;;;;;;;13.82;8.18;;;15.80;99.90;;;;;;5082663;28;20047;-90
2022/09/09 07:23:30;;;;;;;11.98;8.30;;;15.90;99.90;;;;;;5087915;28;20052;-92
2022/09/09 07:25:57;;;;;;;13.10;8.43;;;15.90;99.90;;;;;;5072564;28;20395;-92
2022/09/09 07:28:23;;;;;;;12.07;8.35;;;15.90;99.90;;;;;;5069874;28;20078;-91
2022/09/09 07:31:03;;;;;;;11.82;8.30;;;16.00;99.90;;;;;;5057995;28;20044;-91
2022/09/09 07:33:33;;;;;;;11.68;8.23;;;16.10;99.90;;;;;;5084478;28;20044;-90
2022/09/09 07:36:16;;;;;;;13.55;8.60;;;16.20;99.90;;;;;;5065180;28;20183;-91
2022/09/09 07:38:55;;;;;;;13.40;8.48;;;16.30;99.90;;;;;;5058440;28;20023;-93
2022/09/09 07:41:27;;;;;;;11.98;7.85;;;16.40;99.90;;;;;;5058031;28;20040;-93
2022/09/09 07:43:53;;;;;;;12.32;7.47;;;16.40;99.90;;;;;;5067906;28;20050;-94
2022/09/09 07:46:20;;;;;;;12.48;8.00;;;16.60;99.90;;;;;;5055878;28;20128;-95
2022/09/09 07:48:51;;;;;;;11.27;7.88;;;16.60;99.90;;;;;;5055609;28;20122;-94
2022/09/09 07:51:19;;;;;;;11.80;7.78;;;16.70;99.90;;;;;;5053898;28;20071;-92
2022/09/09 07:53:46;;;;;;;13.10;7.75;;;16.80;99.90;;;;;;5066834;28;20131;-92
2022/09/09 07:56:15;;;;;;;13.60;8.10;;;16.80;99.90;;;;;;5071654;28;20036;-92
2022/09/09 07:58:41;;;;;;;11.85;7.38;;;16.80;99.90;;;;;;5070286;28;20048;-92
2022/09/09 08:01:13;;;;;;;11.15;7.47;;;16.80;99.90;;;;;;5055787;28;20043;-93
2022/09/09 08:03:39;;;;;;;10.30;8.27;;;16.90;99.90;;;;;;5070237;28;20063;-92
2022/09/09 08:06:07;;;;;;;10.95;8.30;;;17.00;99.90;;;;;;5069290;28;20554;-89
2022/09/09 08:08:34;;;;;;;11.57;7.93;;;17.00;99.90;;;;;;5070446;28;20561;-92
2022/09/09 08:11:07;;;;;;;12.50;7.85;;;16.90;99.90;;;;;;5089202;28;20073;-90
2022/09/09 08:13:34;;;;;;;13.55;8.48;;;17.00;99.90;;;;;;5071259;28;20047;-91
2022/09/09 08:16:15;;;;;;;11.90;8.00;;;17.00;99.90;;;;;;5067159;28;20044;-91
2022/09/09 08:18:41;;;;;;;14.02;7.93;;;17.00;99.90;;;;;;5065540;28;20048;-91
2022/09/09 08:21:11;;;;;;;11.38;8.05;;;17.00;99.90;;;;;;5052890;28;20090;-90
2022/09/09 08:23:39;;;;;;;11.07;8.30;;;17.00;99.90;;;;;;5088398;28;20067;-93
2022/09/09 08:26:06;;;;;;;13.10;8.35;;;17.10;99.90;;;;;;5051102;28;20641;-90
2022/09/09 08:28:32;;;;;;;12.75;7.88;;;17.10;99.90;;;;;;5071499;28;20036;-92
2022/09/09 08:31:10;;;;;;;12.40;7.57;;;17.20;99.90;;;;;;5069747;28;20035;-90
2022/09/09 08:33:37;;;;;;;10.45;7.90;;;17.10;99.90;;;;;;5055053;28;20135;-91
2022/09/09 08:36:04;;;;;;;12.40;8.65;;;17.10;99.90;;;;;;5066993;28;20074;-91
2022/09/09 08:38:29;;;;;;;13.68;7.97;;;17.20;99.90;;;;;;5071811;28;20044;-91
2022/09/09 08:41:07;;;;;;;11.30;7.40;;;17.30;99.90;;;;;;5089293;28;20044;-91
2022/09/09 08:43:33;;;;;;;12.45;7.70;;;17.10;99.90;;;;;;5086902;28;20050;-89
2022/09/09 08:46:11;;;;;;;13.07;7.70;;;17.40;99.90;;;;;;5073964;28;20044;-92
2022/09/09 08:49:04;;;;;;;10.80;6.97;;;17.40;99.90;;;;;;5084935;28;20483;-91
2022/09/09 08:51:33;;;;;;;13.43;6.78;;;17.40;99.90;;;;;;5057687;28;20044;-89
2022/09/09 08:54:01;;;;;;;11.80;6.70;;;17.50;99.90;;;;;;5081184;28;20040;-92
2022/09/09 08:56:29;;;;;;;12.52;6.57;;;17.40;99.90;;;;;;5075215;28;20094;-88
2022/09/09 08:58:57;;;;;;;11.80;6.53;;;17.60;99.90;;;;;;5102248;28;20050;-89
2022/09/09 09:01:51;;;;;;;11.73;6.15;;;17.70;99.90;;;;;;5112515;28;20067;-89
2022/09/09 09:04:51;;;;;;;10.93;5.63;;;17.70;99.90;;;;;;5085687;28;20040;-88
2022/09/09 09:07:42;;;;;;;10.52;5.15;;;17.80;99.90;;;;;;5066818;28;20049;-89
2022/09/09 09:10:42;;;;;;;11.23;4.78;;;17.80;99.90;;;;;;5075201;28;20058;-89
2022/09/09 09:13:33;;;;;;;11.23;5.20;;;17.80;99.90;;;;;;5072325;28;20120;-90
2022/09/09 09:16:09;;;;;;;10.80;5.07;;;17.80;99.90;;;;;;5067639;28;20035;-89
2022/09/09 09:18:35;;;;;;;12.65;4.97;;;17.90;99.90;;;;;;5077134;28;20396;-88
2022/09/09 09:21:27;;;;;;;11.43;5.22;;;17.90;99.90;;;;;;5127919;27;20055;-88
2022/09/09 09:23:57;;;;;;;11.75;5.05;;;18.00;99.90;;;;;;5092689;28;20059;-91
2022/09/09 09:26:32;;;;;;;9.95;4.90;;;18.00;99.90;;;;;;5069644;28;20130;-90
2022/09/09 09:28:59;;;;;;;10.13;4.50;;;18.00;99.90;;;;;;5089161;28;20067;-90
2022/09/09 09:31:26;;;;;;;10.32;4.20;;;18.00;99.90;;;;;;5079895;28;20047;-90
2022/09/09 09:33:54;;;;;;;10.05;4.35;;;18.10;99.90;;;;;;5082656;28;20052;-90
2022/09/09 09:36:25;;;;;;;11.98;4.05;;;18.10;99.90;;;;;;5080194;28;20047;-90
2022/09/09 09:38:52;;;;;;;;;;;18.10;99.90;;;;;;5089118;28;20047;-91
2022/09/09 09:41:29;;;;;;;10.95;4.28;;;18.10;99.90;;;;;;5057086;28;19919;-90
2022/09/09 09:43:55;;;;;;;12.98;4.15;;;18.20;99.90;;;;;;5090940;28;20048;-94
2022/09/09 09:46:23;;;;;;;11.45;3.65;;;18.20;99.90;;;;;;5084477;28;20043;-88
2022/09/09 09:48:59;;;;;;;10.85;3.70;;;18.30;99.90;;;;;;5112406;28;20427;-93
2022/09/09 09:51:26;;;;;;;11.10;3.30;;;18.30;99.90;;;;;;5079699;28;20071;-93
2022/09/09 09:53:53;;;;;;;11.80;3.45;;;18.30;99.90;;;;;;5108292;28;20085;-93
2022/09/09 09:56:28;;;;;;;11.95;3.40;;;18.20;99.90;;;;;;5102711;28;20089;-91
2022/09/09 09:58:54;;;;;;;9.60;3.30;;;18.20;99.90;;;;;;5081918;28;20040;-92
2022/09/09 10:01:27;;;;;;;10.63;3.38;;;18.20;99.90;;;;;;5090886;28;20132;-95
2022/09/09 10:03:57;;;;;;;8.43;3.42;;;18.30;99.90;;;;;;5059202;28;20076;-93
2022/09/09 10:06:33;;;;;;;10.27;3.25;;;18.30;99.90;;;;;;5075752;28;20377;-92
2022/09/09 10:09:01;;;;;;;10.30;3.17;;;18.30;99.90;;;;;;5095443;28;20394;-95
2022/09/09 10:11:44;;;;;;;9.40;2.97;;;18.40;99.90;;;;;;5083439;28;20044;-92
2022/09/09 10:14:24;;;;;;;8.93;3.60;;;18.40;99.90;;;;;;5077718;28;20894;-96
2022/09/09 10:17:08;;;;;;;8.55;3.20;;;18.50;99.90;;;;;;5100268;28;20067;-96
2022/09/09 10:19:37;;;;;;;9.50;3.20;;;18.50;99.90;;;;;;5069389;28;20087;-96
2022/09/09 10:22:08;;;;;;;9.90;3.15;;;18.50;99.90;;;;;;5081296;28;20047;-95
2022/09/09 10:25:05;;;;;;;12.00;3.60;;;18.50;99.90;;;;;;5056537;28;20126;-95
2022/09/09 10:27:54;;;;;;;9.85;3.05;;;18.50;99.90;;;;;;5093557;28;20048;-94
2022/09/09 10:30:35;;;;;;;11.00;3.20;;;18.60;99.90;;;;;;5089677;28;20048;-96
2022/09/09 10:33:13;;;;;;;;;;;18.70;99.90;;;;;;5084717;28;20520;-96
2022/09/09 10:36:05;;;;;;;9.60;2.78;;;18.80;99.90;;;;;;5062089;28;19943;-96
2022/09/09 10:38:41;;;;;;;9.10;2.60;;;19.10;99.90;;;;;;5083374;28;20053;-95
2022/09/09 10:41:30;;;;;;;7.28;2.08;;;19.20;99.90;;;;;;5096448;28;20051;-95
2022/09/09 10:44:29;;;;;;;7.95;2.40;;;19.30;99.90;;;;;;5062129;28;20098;-92
2022/09/09 10:47:13;;;;;;;7.95;2.40;;;19.30;99.90;;;;;;5057040;28;20369;-94
2022/09/09 10:50:03;;;;;;;7.20;2.60;;;19.20;99.90;;;;;;5073873;28;20058;-94
2022/09/09 10:52:32;;;;;;;6.88;2.42;;;19.20;99.90;;;;;;5066643;28;20384;-94
2022/09/09 10:55:11;;;;;;;10.40;2.60;;;19.20;99.90;;;;;;5071577;28;20048;-96
2022/09/09 10:57:45;;;;;;;6.82;2.10;;;19.30;99.90;;;;;;5058346;28;20079;-96
2022/09/09 11:00:47;;;;;;;7.20;2.53;;;19.40;99.90;;;;;;5071884;28;20080;-96
2022/09/09 11:03:33;;;;;;;7.97;2.30;;;19.50;99.90;;;;;;5069219;28;20059;-94
2022/09/09 11:06:09;;;;;;;6.45;1.88;;;19.60;99.90;;;;;;5091554;28;20438;-93
2022/09/09 11:08:38;;;;;;;7.40;1.90;;;19.70;99.90;;;;;;5074534;28;20455;-92
2022/09/09 11:11:19;;;;;;;8.10;2.10;;;19.70;99.90;;;;;;5073754;28;20107;-94
2022/09/09 11:13:58;;;;;;;7.10;2.25;;;19.50;99.90;;;;;;5071584;28;20058;-91
2022/09/09 11:16:49;;;;;;;8.68;2.50;;;19.40;99.90;;;;;;5072912;28;20137;-90
2022/09/09 11:19:29;;;;;;;8.48;2.58;;;19.20;99.90;;;;;;5052527;28;20053;-90
2022/09/09 11:21:57;;;;;;;7.68;2.58;;;19.10;99.90;;;;;;5052507;28;20131;-90
2022/09/09 11:24:46;;;;;;;9.38;2.90;;;19.10;99.90;;;;;;5053647;28;20093;-88
2022/09/09 11:27:28;;;;;;;9.85;3.00;;;19.20;99.90;;;;;;5070563;28;20047;-89
2022/09/09 11:30:14;;;;;;;;;;;19.30;99.90;;;;;;5035939;28;20051;-91
2022/09/09 11:33:02;;;;;;;10.00;2.40;;;19.30;99.90;;;;;;5063003;28;19931;-91
2022/09/09 11:35:53;;;;;;;9.68;2.65;;;19.40;99.90;;;;;;5090110;28;20044;-91
2022/09/09 11:38:20;;;;;;;7.55;2.72;;;19.40;99.90;;;;;;5073330;28;20087;-90
2022/09/09 11:40:47;;;;;;;9.48;2.40;;;19.30;99.90;;;;;;5071602;28;20069;-91
2022/09/09 11:43:33;;;;;;;8.50;2.33;;;19.30;99.90;;;;;;5055330;28;20043;-91
2022/09/09 11:46:02;;;;;;;7.28;2.22;;;19.30;99.90;;;;;;5054422;28;20040;-92
2022/09/09 11:48:43;;;;;;;8.52;2.50;;;19.30;99.90;;;;;;5051272;28;20086;-91
2022/09/09 11:51:25;;;;;;;6.50;2.13;;;19.20;99.90;;;;;;5055370;28;20508;-90
2022/09/09 11:53:54;;;;;;;8.80;2.40;;;19.20;99.90;;;;;;5055429;28;20044;-90
2022/09/09 11:56:44;;;;;;;8.13;2.08;;;19.30;99.90;;;;;;5072374;28;20052;-91
2022/09/09 11:59:26;;;;;;;7.28;2.65;;;19.40;99.90;;;;;;5060274;28;20060;-91
2022/09/09 12:01:59;;;;;;;8.57;2.35;;;19.40;99.90;;;;;;5070582;28;20392;-91
2022/09/09 12:04:25;;;;;;;8.85;2.72;;;19.50;99.90;;;;;;5071307;28;20083;-92
2022/09/09 12:07:44;;;;;;;7.65;2.42;;;19.70;99.90;;;;;;5054409;28;20075;-90
2022/09/09 12:10:29;;;;;;;6.68;2.35;;;19.70;99.90;;;;;;4992302;28;20087;-90
2022/09/09 12:12:55;;;;;;;6.45;2.13;;;19.80;99.90;;;;;;4991464;28;20054;-91
2022/09/09 12:15:25;;;;;;;7.85;2.40;;;20.00;99.90;;;;;;4991822;28;20042;-93
2022/09/09 12:17:53;;;;;;;7.28;2.20;;;20.10;99.90;;;;;;4990780;28;20085;-92
2022/09/09 12:20:36;;;;;;;10.57;2.50;;;20.00;99.90;;;;;;5008036;28;20422;-92
2022/09/09 12:23:32;;;;;;;6.65;2.03;;;19.90;99.90;;;;;;4974590;28;20093;-91
2022/09/09 12:26:16;;;;;;;7.60;2.60;;;19.80;99.90;;;;;;5009375;28;20503;-92
2022/09/09 12:29:05;;;;;;;7.90;1.95;;;19.80;99.90;;;;;;4995870;28;20076;-92
2022/09/09 12:32:06;;;;;;;7.75;1.90;;;19.80;99.90;;;;;;4978474;28;20045;-92
2022/09/09 12:34:47;;;;;;;8.05;2.08;;;19.90;99.90;;;;;;4984417;28;20058;-93
2022/09/09 12:37:27;;;;;;;;;;;20.00;99.90;;;;;;4996270;28;20144;-93
2022/09/09 12:39:57;;;;;;;6.47;1.98;;;19.90;99.90;;;;;;5011825;28;20409;-91
2022/09/09 12:42:23;;;;;;;7.65;1.90;;;20.00;99.90;;;;;;4996299;28;20122;-92
2022/09/09 12:44:54;;;;;;;5.63;1.80;;;20.20;99.90;;;;;;5057509;28;20063;-92
2022/09/09 12:47:29;;;;;;;8.57;2.13;;;20.20;99.90;;;;;;5076242;28;20075;-92
2022/09/09 12:49:56;;;;;;;7.35;1.83;;;20.20;99.90;;;;;;5073065;28;20044;-92
2022/09/09 12:52:33;;;;;;;8.82;2.08;;;20.10;99.90;;;;;;5058646;28;20040;-91
2022/09/09 12:55:01;;;;;;;8.85;2.00;;;20.00;99.90;;;;;;5093165;28;20500;-93
2022/09/09 12:57:37;;;;;;;6.88;2.10;;;19.90;99.90;;;;;;5076690;28;20040;-92
2022/09/09 13:00:16;;;;;;;8.80;2.85;;;19.70;99.90;;;;;;5057381;28;20059;-89
2022/09/09 13:02:56;;;;;;;10.27;3.03;;;19.60;99.90;;;;;;5074489;28;20407;-89
2022/09/09 13:05:37;;;;;;;8.65;2.65;;;19.30;99.90;;;;;;5074661;28;20044;-89